sensor_id;sensor_type;location;lat;lon;timestamp;P1;durP1;ratioP1;P2;durP2;ratioP2
18661;SDS011;61528;49.456;11.098;2022-11-20T00:02:00;21.67;;;13.90;;
18661;SDS011;61528;49.456;11.098;2022-11-20T00:04:26;24.20;;;14.17;;
18661;SDS011;61528;49.456;11.098;2022-11-20T00:06:53;26.07;;;15.90;;
18661;SDS011;61528;49.456;11.098;2022-11-20T00:09:19;24.70;;;14.07;;
18661;SDS011;61528;49.456;11.098;2022-11-20T00:11:45;24.73;;;14.47;;
18661;SDS011;61528;49.456;11.098;2022-11-20T00:14:11;26.60;;;15.37;;
18661;SDS011;61528;49.456;11.098;2022-11-20T00:16:37;25.37;;;14.90;;
18661;SDS011;61528;49.456;11.098;2022-11-20T00:19:04;25.43;;;14.90;;
18661;SDS011;61528;49.456;11.098;2022-11-20T00:21:30;24.50;;;14.80;;
18661;SDS011;61528;49.456;11.098;2022-11-20T00:23:56;27.63;;;16.13;;
18661;SDS011;61528;49.456;11.098;2022-11-20T00:26:23;29.03;;;16.47;;
18661;SDS011;61528;49.456;11.098;2022-11-20T00:28:51;28.87;;;15.47;;
18661;SDS011;61528;49.456;11.098;2022-11-20T00:31:17;28.07;;;16.17;;
18661;SDS011;61528;49.456;11.098;2022-11-20T00:33:44;26.77;;;15.10;;
18661;SDS011;61528;49.456;11.098;2022-11-20T00:36:12;27.43;;;16.63;;
18661;SDS011;61528;49.456;11.098;2022-11-20T00:38:39;25.13;;;14.83;;
18661;SDS011;61528;49.456;11.098;2022-11-20T00:41:06;27.53;;;15.37;;
18661;SDS011;61528;49.456;11.098;2022-11-20T00:43:33;24.30;;;14.60;;
18661;SDS011;61528;49.456;11.098;2022-11-20T00:46:00;26.13;;;15.60;;
18661;SDS011;61528;49.456;11.098;2022-11-20T00:48:27;27.03;;;14.67;;
18661;SDS011;61528;49.456;11.098;2022-11-20T00:50:53;25.47;;;14.83;;
18661;SDS011;61528;49.456;11.098;2022-11-20T00:53:20;26.77;;;15.80;;
18661;SDS011;61528;49.456;11.098;2022-11-20T00:55:56;26.37;;;15.07;;
18661;SDS011;61528;49.456;11.098;2022-11-20T00:58:23;26.13;;;15.57;;
18661;SDS011;61528;49.456;11.098;2022-11-20T01:00:50;25.47;;;15.73;;
18661;SDS011;61528;49.456;11.098;2022-11-20T01:03:17;27.00;;;14.83;;
18661;SDS011;61528;49.456;11.098;2022-11-20T01:05:43;22.80;;;14.00;;
18661;SDS011;61528;49.456;11.098;2022-11-20T01:08:09;23.60;;;14.50;;
18661;SDS011;61528;49.456;11.098;2022-11-20T01:10:36;24.30;;;14.17;;
18661;SDS011;61528;49.456;11.098;2022-11-20T01:13:02;24.27;;;14.23;;
18661;SDS011;61528;49.456;11.098;2022-11-20T01:15:46;23.73;;;14.23;;
18661;SDS011;61528;49.456;11.098;2022-11-20T01:18:13;26.50;;;15.63;;
18661;SDS011;61528;49.456;11.098;2022-11-20T01:20:39;26.43;;;14.37;;
18661;SDS011;61528;49.456;11.098;2022-11-20T01:23:05;26.80;;;14.80;;
18661;SDS011;61528;49.456;11.098;2022-11-20T01:25:31;26.13;;;15.23;;
18661;SDS011;61528;49.456;11.098;2022-11-20T01:27:57;24.97;;;14.47;;
18661;SDS011;61528;49.456;11.098;2022-11-20T01:30:23;24.83;;;14.93;;
18661;SDS011;61528;49.456;11.098;2022-11-20T01:32:50;27.93;;;15.23;;
18661;SDS011;61528;49.456;11.098;2022-11-20T01:35:16;27.73;;;14.73;;
18661;SDS011;61528;49.456;11.098;2022-11-20T01:37:43;26.73;;;14.53;;
18661;SDS011;61528;49.456;11.098;2022-11-20T01:40:09;26.50;;;15.93;;
18661;SDS011;61528;49.456;11.098;2022-11-20T01:42:35;27.67;;;15.53;;
18661;SDS011;61528;49.456;11.098;2022-11-20T01:48:05;28.53;;;15.83;;
18661;SDS011;61528;49.456;11.098;2022-11-20T01:50:31;27.90;;;15.33;;
18661;SDS011;61528;49.456;11.098;2022-11-20T01:53:02;27.03;;;15.30;;
18661;SDS011;61528;49.456;11.098;2022-11-20T01:55:30;25.93;;;15.33;;
18661;SDS011;61528;49.456;11.098;2022-11-20T01:57:58;28.93;;;15.03;;
18661;SDS011;61528;49.456;11.098;2022-11-20T02:00:24;30.97;;;16.23;;
18661;SDS011;61528;49.456;11.098;2022-11-20T02:03:12;29.53;;;16.33;;
18661;SDS011;61528;49.456;11.098;2022-11-20T02:08:04;30.73;;;16.20;;
18661;SDS011;61528;49.456;11.098;2022-11-20T02:10:31;31.23;;;16.40;;
18661;SDS011;61528;49.456;11.098;2022-11-20T02:12:57;29.90;;;16.40;;
18661;SDS011;61528;49.456;11.098;2022-11-20T02:15:42;27.70;;;15.33;;
18661;SDS011;61528;49.456;11.098;2022-11-20T02:18:09;26.63;;;15.20;;
18661;SDS011;61528;49.456;11.098;2022-11-20T02:20:36;30.10;;;15.33;;
18661;SDS011;61528;49.456;11.098;2022-11-20T02:25:34;27.90;;;15.70;;
18661;SDS011;61528;49.456;11.098;2022-11-20T02:28:12;28.47;;;15.77;;
18661;SDS011;61528;49.456;11.098;2022-11-20T02:30:51;30.43;;;15.57;;
18661;SDS011;61528;49.456;11.098;2022-11-20T02:33:17;30.23;;;16.23;;
18661;SDS011;61528;49.456;11.098;2022-11-20T02:35:44;31.40;;;15.60;;
18661;SDS011;61528;49.456;11.098;2022-11-20T02:38:12;26.57;;;14.67;;
18661;SDS011;61528;49.456;11.098;2022-11-20T02:40:38;29.17;;;15.80;;
18661;SDS011;61528;49.456;11.098;2022-11-20T02:43:05;29.57;;;17.07;;
18661;SDS011;61528;49.456;11.098;2022-11-20T02:45:31;27.03;;;15.33;;
18661;SDS011;61528;49.456;11.098;2022-11-20T02:47:57;27.93;;;15.50;;
18661;SDS011;61528;49.456;11.098;2022-11-20T02:50:23;28.47;;;15.73;;
18661;SDS011;61528;49.456;11.098;2022-11-20T02:52:50;28.33;;;16.33;;
18661;SDS011;61528;49.456;11.098;2022-11-20T02:55:16;27.03;;;14.97;;
18661;SDS011;61528;49.456;11.098;2022-11-20T02:57:42;29.10;;;15.80;;
18661;SDS011;61528;49.456;11.098;2022-11-20T03:00:08;31.17;;;16.07;;
18661;SDS011;61528;49.456;11.098;2022-11-20T03:02:35;27.63;;;16.30;;
18661;SDS011;61528;49.456;11.098;2022-11-20T03:05:01;28.83;;;15.87;;
18661;SDS011;61528;49.456;11.098;2022-11-20T03:07:28;29.87;;;15.40;;
18661;SDS011;61528;49.456;11.098;2022-11-20T03:09:54;25.27;;;14.23;;
18661;SDS011;61528;49.456;11.098;2022-11-20T03:12:20;31.63;;;16.57;;
18661;SDS011;61528;49.456;11.098;2022-11-20T03:14:46;26.13;;;15.13;;
18661;SDS011;61528;49.456;11.098;2022-11-20T03:17:12;25.50;;;14.83;;
18661;SDS011;61528;49.456;11.098;2022-11-20T03:19:39;28.70;;;15.60;;
18661;SDS011;61528;49.456;11.098;2022-11-20T03:22:05;30.63;;;16.20;;
18661;SDS011;61528;49.456;11.098;2022-11-20T03:24:31;26.13;;;15.63;;
18661;SDS011;61528;49.456;11.098;2022-11-20T03:26:57;26.03;;;14.93;;
18661;SDS011;61528;49.456;11.098;2022-11-20T03:29:24;28.83;;;15.37;;
18661;SDS011;61528;49.456;11.098;2022-11-20T03:31:50;29.63;;;15.90;;
18661;SDS011;61528;49.456;11.098;2022-11-20T03:34:16;28.93;;;15.70;;
18661;SDS011;61528;49.456;11.098;2022-11-20T03:36:43;27.43;;;16.27;;
18661;SDS011;61528;49.456;11.098;2022-11-20T03:39:09;26.77;;;15.23;;
18661;SDS011;61528;49.456;11.098;2022-11-20T03:41:36;28.93;;;15.83;;
18661;SDS011;61528;49.456;11.098;2022-11-20T03:44:04;26.63;;;15.30;;
18661;SDS011;61528;49.456;11.098;2022-11-20T03:46:30;25.83;;;15.37;;
18661;SDS011;61528;49.456;11.098;2022-11-20T03:48:57;29.83;;;16.07;;
18661;SDS011;61528;49.456;11.098;2022-11-20T03:51:24;27.80;;;15.67;;
18661;SDS011;61528;49.456;11.098;2022-11-20T03:53:52;28.43;;;16.03;;
18661;SDS011;61528;49.456;11.098;2022-11-20T03:56:20;27.33;;;15.67;;
18661;SDS011;61528;49.456;11.098;2022-11-20T03:58:48;28.90;;;14.87;;
18661;SDS011;61528;49.456;11.098;2022-11-20T04:01:16;27.53;;;15.43;;
18661;SDS011;61528;49.456;11.098;2022-11-20T04:03:42;26.57;;;14.50;;
18661;SDS011;61528;49.456;11.098;2022-11-20T04:06:10;25.20;;;15.17;;
18661;SDS011;61528;49.456;11.098;2022-11-20T04:08:37;26.67;;;15.47;;
18661;SDS011;61528;49.456;11.098;2022-11-20T04:11:20;27.80;;;15.40;;
18661;SDS011;61528;49.456;11.098;2022-11-20T04:13:48;27.13;;;14.17;;
18661;SDS011;61528;49.456;11.098;2022-11-20T04:16:14;25.93;;;15.20;;
18661;SDS011;61528;49.456;11.098;2022-11-20T04:18:41;25.90;;;13.70;;
18661;SDS011;61528;49.456;11.098;2022-11-20T04:21:08;27.40;;;14.07;;
18661;SDS011;61528;49.456;11.098;2022-11-20T04:23:34;25.43;;;14.17;;
18661;SDS011;61528;49.456;11.098;2022-11-20T04:26:10;25.10;;;14.03;;
18661;SDS011;61528;49.456;11.098;2022-11-20T04:28:37;24.93;;;14.63;;
18661;SDS011;61528;49.456;11.098;2022-11-20T04:31:08;22.50;;;13.73;;
18661;SDS011;61528;49.456;11.098;2022-11-20T04:33:35;24.77;;;14.63;;
18661;SDS011;61528;49.456;11.098;2022-11-20T04:36:03;25.10;;;13.80;;
18661;SDS011;61528;49.456;11.098;2022-11-20T04:38:29;22.77;;;13.47;;
18661;SDS011;61528;49.456;11.098;2022-11-20T04:40:57;21.47;;;12.43;;
18661;SDS011;61528;49.456;11.098;2022-11-20T04:43:23;24.83;;;13.63;;
18661;SDS011;61528;49.456;11.098;2022-11-20T04:45:51;26.73;;;13.93;;
18661;SDS011;61528;49.456;11.098;2022-11-20T04:48:17;22.83;;;13.13;;
18661;SDS011;61528;49.456;11.098;2022-11-20T04:50:43;23.97;;;13.43;;
18661;SDS011;61528;49.456;11.098;2022-11-20T04:53:10;27.23;;;13.77;;
18661;SDS011;61528;49.456;11.098;2022-11-20T04:55:36;23.73;;;13.90;;
18661;SDS011;61528;49.456;11.098;2022-11-20T04:58:03;25.20;;;12.90;;
18661;SDS011;61528;49.456;11.098;2022-11-20T05:00:29;25.27;;;13.27;;
18661;SDS011;61528;49.456;11.098;2022-11-20T05:02:55;23.97;;;13.37;;
18661;SDS011;61528;49.456;11.098;2022-11-20T05:05:21;22.73;;;13.40;;
18661;SDS011;61528;49.456;11.098;2022-11-20T05:07:48;23.10;;;13.33;;
18661;SDS011;61528;49.456;11.098;2022-11-20T05:10:14;23.30;;;13.40;;
18661;SDS011;61528;49.456;11.098;2022-11-20T05:12:40;22.37;;;12.93;;
18661;SDS011;61528;49.456;11.098;2022-11-20T05:15:07;25.47;;;14.20;;
18661;SDS011;61528;49.456;11.098;2022-11-20T05:17:33;24.50;;;12.97;;
18661;SDS011;61528;49.456;11.098;2022-11-20T05:19:59;21.83;;;12.33;;
18661;SDS011;61528;49.456;11.098;2022-11-20T05:22:25;25.40;;;13.70;;
18661;SDS011;61528;49.456;11.098;2022-11-20T05:24:52;25.60;;;13.60;;
18661;SDS011;61528;49.456;11.098;2022-11-20T05:27:18;24.10;;;13.47;;
18661;SDS011;61528;49.456;11.098;2022-11-20T05:29:44;24.63;;;13.20;;
18661;SDS011;61528;49.456;11.098;2022-11-20T05:32:10;25.20;;;13.20;;
18661;SDS011;61528;49.456;11.098;2022-11-20T05:34:37;23.60;;;12.77;;
18661;SDS011;61528;49.456;11.098;2022-11-20T05:37:03;24.37;;;12.97;;
18661;SDS011;61528;49.456;11.098;2022-11-20T05:39:29;26.23;;;13.73;;
18661;SDS011;61528;49.456;11.098;2022-11-20T05:41:55;22.23;;;12.37;;
18661;SDS011;61528;49.456;11.098;2022-11-20T05:44:40;22.97;;;12.50;;
18661;SDS011;61528;49.456;11.098;2022-11-20T05:47:06;23.50;;;13.07;;
18661;SDS011;61528;49.456;11.098;2022-11-20T05:49:33;25.23;;;13.90;;
18661;SDS011;61528;49.456;11.098;2022-11-20T05:51:59;22.87;;;12.90;;
18661;SDS011;61528;49.456;11.098;2022-11-20T05:54:25;24.13;;;13.47;;
18661;SDS011;61528;49.456;11.098;2022-11-20T05:56:51;26.30;;;13.03;;
18661;SDS011;61528;49.456;11.098;2022-11-20T05:59:18;24.87;;;13.60;;
18661;SDS011;61528;49.456;11.098;2022-11-20T06:01:44;22.80;;;12.97;;
18661;SDS011;61528;49.456;11.098;2022-11-20T06:04:10;22.17;;;11.93;;
18661;SDS011;61528;49.456;11.098;2022-11-20T06:06:36;24.60;;;13.07;;
18661;SDS011;61528;49.456;11.098;2022-11-20T06:09:03;22.40;;;12.50;;
18661;SDS011;61528;49.456;11.098;2022-11-20T06:11:29;25.10;;;13.40;;
18661;SDS011;61528;49.456;11.098;2022-11-20T06:13:55;22.43;;;12.40;;
18661;SDS011;61528;49.456;11.098;2022-11-20T06:16:21;24.27;;;13.10;;
18661;SDS011;61528;49.456;11.098;2022-11-20T06:18:48;20.77;;;11.33;;
18661;SDS011;61528;49.456;11.098;2022-11-20T06:21:18;22.77;;;12.83;;
18661;SDS011;61528;49.456;11.098;2022-11-20T06:23:45;20.00;;;11.47;;
18661;SDS011;61528;49.456;11.098;2022-11-20T06:26:16;22.40;;;12.43;;
18661;SDS011;61528;49.456;11.098;2022-11-20T06:28:42;23.03;;;12.60;;
18661;SDS011;61528;49.456;11.098;2022-11-20T06:31:10;22.63;;;12.53;;
18661;SDS011;61528;49.456;11.098;2022-11-20T06:33:37;23.67;;;12.93;;
18661;SDS011;61528;49.456;11.098;2022-11-20T06:36:03;25.17;;;13.47;;
18661;SDS011;61528;49.456;11.098;2022-11-20T06:38:30;23.27;;;12.57;;
18661;SDS011;61528;49.456;11.098;2022-11-20T06:40:56;22.23;;;12.53;;
18661;SDS011;61528;49.456;11.098;2022-11-20T06:43:23;22.50;;;12.27;;
18661;SDS011;61528;49.456;11.098;2022-11-20T06:45:53;23.77;;;12.10;;
18661;SDS011;61528;49.456;11.098;2022-11-20T06:48:19;23.70;;;11.80;;
18661;SDS011;61528;49.456;11.098;2022-11-20T06:50:46;21.23;;;11.73;;
18661;SDS011;61528;49.456;11.098;2022-11-20T06:53:12;21.87;;;11.80;;
18661;SDS011;61528;49.456;11.098;2022-11-20T06:55:41;24.17;;;12.50;;
18661;SDS011;61528;49.456;11.098;2022-11-20T06:58:08;20.10;;;11.67;;
18661;SDS011;61528;49.456;11.098;2022-11-20T07:00:35;21.40;;;12.33;;
18661;SDS011;61528;49.456;11.098;2022-11-20T07:03:05;23.90;;;13.20;;
18661;SDS011;61528;49.456;11.098;2022-11-20T07:05:31;25.33;;;12.47;;
18661;SDS011;61528;49.456;11.098;2022-11-20T07:07:58;25.80;;;13.10;;
18661;SDS011;61528;49.456;11.098;2022-11-20T07:10:24;23.10;;;12.50;;
18661;SDS011;61528;49.456;11.098;2022-11-20T07:12:51;21.77;;;12.13;;
18661;SDS011;61528;49.456;11.098;2022-11-20T07:15:18;21.13;;;11.70;;
18661;SDS011;61528;49.456;11.098;2022-11-20T07:17:44;21.27;;;11.53;;
18661;SDS011;61528;49.456;11.098;2022-11-20T07:20:11;24.70;;;11.87;;
18661;SDS011;61528;49.456;11.098;2022-11-20T07:22:38;22.67;;;13.03;;
18661;SDS011;61528;49.456;11.098;2022-11-20T07:25:04;21.33;;;11.83;;
18661;SDS011;61528;49.456;11.098;2022-11-20T07:27:30;20.80;;;11.60;;
18661;SDS011;61528;49.456;11.098;2022-11-20T07:29:57;22.53;;;12.60;;
18661;SDS011;61528;49.456;11.098;2022-11-20T07:32:23;24.30;;;11.93;;
18661;SDS011;61528;49.456;11.098;2022-11-20T07:34:50;21.77;;;12.10;;
18661;SDS011;61528;49.456;11.098;2022-11-20T07:37:16;19.40;;;11.90;;
18661;SDS011;61528;49.456;11.098;2022-11-20T07:39:42;25.33;;;12.37;;
18661;SDS011;61528;49.456;11.098;2022-11-20T07:42:09;22.93;;;12.60;;
18661;SDS011;61528;49.456;11.098;2022-11-20T07:44:37;21.80;;;12.43;;
18661;SDS011;61528;49.456;11.098;2022-11-20T07:47:03;22.07;;;12.27;;
18661;SDS011;61528;49.456;11.098;2022-11-20T07:49:30;20.80;;;11.83;;
18661;SDS011;61528;49.456;11.098;2022-11-20T07:51:56;20.67;;;11.70;;
18661;SDS011;61528;49.456;11.098;2022-11-20T07:54:22;19.30;;;11.60;;
18661;SDS011;61528;49.456;11.098;2022-11-20T07:56:49;19.73;;;12.03;;
18661;SDS011;61528;49.456;11.098;2022-11-20T07:59:15;20.10;;;11.77;;
18661;SDS011;61528;49.456;11.098;2022-11-20T08:01:42;21.87;;;11.87;;
18661;SDS011;61528;49.456;11.098;2022-11-20T08:04:08;23.67;;;12.30;;
18661;SDS011;61528;49.456;11.098;2022-11-20T08:06:35;21.50;;;12.53;;
18661;SDS011;61528;49.456;11.098;2022-11-20T08:09:02;20.40;;;11.90;;
18661;SDS011;61528;49.456;11.098;2022-11-20T08:11:28;19.30;;;11.47;;
18661;SDS011;61528;49.456;11.098;2022-11-20T08:14:13;21.20;;;12.43;;
18661;SDS011;61528;49.456;11.098;2022-11-20T08:16:44;20.93;;;12.10;;
18661;SDS011;61528;49.456;11.098;2022-11-20T08:19:11;20.83;;;11.80;;
18661;SDS011;61528;49.456;11.098;2022-11-20T08:21:37;21.40;;;11.50;;
18661;SDS011;61528;49.456;11.098;2022-11-20T08:24:04;22.07;;;12.33;;
18661;SDS011;61528;49.456;11.098;2022-11-20T08:26:30;20.20;;;11.77;;
18661;SDS011;61528;49.456;11.098;2022-11-20T08:28:57;19.90;;;11.23;;
18661;SDS011;61528;49.456;11.098;2022-11-20T08:31:24;22.60;;;12.23;;
18661;SDS011;61528;49.456;11.098;2022-11-20T08:33:51;20.83;;;11.83;;
18661;SDS011;61528;49.456;11.098;2022-11-20T08:36:17;18.43;;;11.60;;
18661;SDS011;61528;49.456;11.098;2022-11-20T08:38:47;19.07;;;11.50;;
18661;SDS011;61528;49.456;11.098;2022-11-20T08:41:13;20.87;;;11.53;;
18661;SDS011;61528;49.456;11.098;2022-11-20T08:43:49;22.37;;;11.97;;
18661;SDS011;61528;49.456;11.098;2022-11-20T08:46:15;21.93;;;12.17;;
18661;SDS011;61528;49.456;11.098;2022-11-20T08:48:42;19.73;;;12.00;;
18661;SDS011;61528;49.456;11.098;2022-11-20T08:51:08;20.23;;;11.23;;
18661;SDS011;61528;49.456;11.098;2022-11-20T08:53:34;21.57;;;12.20;;
18661;SDS011;61528;49.456;11.098;2022-11-20T08:56:01;21.07;;;11.73;;
18661;SDS011;61528;49.456;11.098;2022-11-20T08:58:27;21.27;;;11.93;;
18661;SDS011;61528;49.456;11.098;2022-11-20T09:00:53;18.47;;;11.30;;
18661;SDS011;61528;49.456;11.098;2022-11-20T09:03:20;21.70;;;11.80;;
18661;SDS011;61528;49.456;11.098;2022-11-20T09:05:46;21.83;;;12.00;;
18661;SDS011;61528;49.456;11.098;2022-11-20T09:08:12;17.23;;;11.07;;
18661;SDS011;61528;49.456;11.098;2022-11-20T09:10:38;21.03;;;12.00;;
18661;SDS011;61528;49.456;11.098;2022-11-20T09:13:05;18.60;;;10.90;;
18661;SDS011;61528;49.456;11.098;2022-11-20T09:15:31;16.10;;;10.63;;
18661;SDS011;61528;49.456;11.098;2022-11-20T09:17:59;18.67;;;11.50;;
18661;SDS011;61528;49.456;11.098;2022-11-20T09:20:26;19.17;;;11.20;;
18661;SDS011;61528;49.456;11.098;2022-11-20T09:22:57;20.40;;;10.93;;
18661;SDS011;61528;49.456;11.098;2022-11-20T09:25:23;18.60;;;11.23;;
18661;SDS011;61528;49.456;11.098;2022-11-20T09:27:59;17.03;;;11.37;;
18661;SDS011;61528;49.456;11.098;2022-11-20T09:30:25;18.30;;;10.63;;
18661;SDS011;61528;49.456;11.098;2022-11-20T09:32:52;17.27;;;11.40;;
18661;SDS011;61528;49.456;11.098;2022-11-20T09:35:18;20.07;;;11.70;;
18661;SDS011;61528;49.456;11.098;2022-11-20T09:37:44;21.70;;;12.20;;
18661;SDS011;61528;49.456;11.098;2022-11-20T09:40:21;19.27;;;11.30;;
18661;SDS011;61528;49.456;11.098;2022-11-20T09:53:19;18.87;;;11.27;;
18661;SDS011;61528;49.456;11.098;2022-11-20T09:55:51;17.20;;;10.87;;
18661;SDS011;61528;49.456;11.098;2022-11-20T10:04:03;19.13;;;11.53;;
18661;SDS011;61528;49.456;11.098;2022-11-20T10:06:32;19.13;;;12.47;;
18661;SDS011;61528;49.456;11.098;2022-11-20T10:09:01;19.27;;;11.97;;
18661;SDS011;61528;49.456;11.098;2022-11-20T10:11:35;19.90;;;11.17;;
18661;SDS011;61528;49.456;11.098;2022-11-20T10:22:11;20.10;;;12.57;;
18661;SDS011;61528;49.456;11.098;2022-11-20T10:30:00;18.40;;;10.97;;
18661;SDS011;61528;49.456;11.098;2022-11-20T10:32:29;18.37;;;10.73;;
18661;SDS011;61528;49.456;11.098;2022-11-20T10:34:58;16.23;;;10.83;;
18661;SDS011;61528;49.456;11.098;2022-11-20T10:37:26;20.50;;;12.33;;
18661;SDS011;61528;49.456;11.098;2022-11-20T10:45:31;22.30;;;12.60;;
18661;SDS011;61528;49.456;11.098;2022-11-20T10:50:31;19.70;;;11.97;;
18661;SDS011;61528;49.456;11.098;2022-11-20T11:00:35;16.80;;;11.23;;
18661;SDS011;61528;49.456;11.098;2022-11-20T11:03:01;21.47;;;12.53;;
18661;SDS011;61528;49.456;11.098;2022-11-20T11:05:39;20.97;;;12.43;;
18661;SDS011;61528;49.456;11.098;2022-11-20T11:08:16;23.03;;;13.30;;
18661;SDS011;61528;49.456;11.098;2022-11-20T11:10:47;20.97;;;12.80;;
18661;SDS011;61528;49.456;11.098;2022-11-20T11:13:19;20.20;;;13.33;;
18661;SDS011;61528;49.456;11.098;2022-11-20T11:15:45;21.17;;;13.70;;
18661;SDS011;61528;49.456;11.098;2022-11-20T11:18:22;19.60;;;12.63;;
18661;SDS011;61528;49.456;11.098;2022-11-20T11:20:52;23.00;;;12.87;;
18661;SDS011;61528;49.456;11.098;2022-11-20T11:23:32;30.60;;;19.37;;
18661;SDS011;61528;49.456;11.098;2022-11-20T11:25:59;42.60;;;24.47;;
18661;SDS011;61528;49.456;11.098;2022-11-20T11:28:26;23.73;;;14.40;;
18661;SDS011;61528;49.456;11.098;2022-11-20T11:30:53;23.80;;;14.90;;
18661;SDS011;61528;49.456;11.098;2022-11-20T11:33:21;29.03;;;17.30;;
18661;SDS011;61528;49.456;11.098;2022-11-20T11:35:52;23.33;;;15.23;;
18661;SDS011;61528;49.456;11.098;2022-11-20T11:38:22;84.70;;;49.10;;
18661;SDS011;61528;49.456;11.098;2022-11-20T11:40:53;28.67;;;17.43;;
18661;SDS011;61528;49.456;11.098;2022-11-20T11:43:21;25.00;;;14.93;;
18661;SDS011;61528;49.456;11.098;2022-11-20T11:48:59;16.00;;;11.00;;
18661;SDS011;61528;49.456;11.098;2022-11-20T11:51:26;21.70;;;12.53;;
18661;SDS011;61528;49.456;11.098;2022-11-20T11:53:54;20.87;;;14.77;;
18661;SDS011;61528;49.456;11.098;2022-11-20T11:56:21;17.63;;;11.63;;
18661;SDS011;61528;49.456;11.098;2022-11-20T11:58:48;44.70;;;25.77;;
18661;SDS011;61528;49.456;11.098;2022-11-20T12:04:05;27.53;;;16.77;;
18661;SDS011;61528;49.456;11.098;2022-11-20T12:06:36;38.60;;;23.00;;
18661;SDS011;61528;49.456;11.098;2022-11-20T12:09:05;44.97;;;26.43;;
18661;SDS011;61528;49.456;11.098;2022-11-20T12:11:38;22.77;;;15.07;;
18661;SDS011;61528;49.456;11.098;2022-11-20T12:14:22;29.90;;;16.90;;
18661;SDS011;61528;49.456;11.098;2022-11-20T12:16:54;19.30;;;11.73;;
18661;SDS011;61528;49.456;11.098;2022-11-20T12:19:22;14.47;;;9.73;;
18661;SDS011;61528;49.456;11.098;2022-11-20T12:31:43;12.30;;;8.27;;
18661;SDS011;61528;49.456;11.098;2022-11-20T12:34:29;12.53;;;8.33;;
18661;SDS011;61528;49.456;11.098;2022-11-20T12:39:50;11.83;;;8.57;;
18661;SDS011;61528;49.456;11.098;2022-11-20T13:04:16;9.43;;;6.57;;
18661;SDS011;61528;49.456;11.098;2022-11-20T13:06:45;21.57;;;12.73;;
18661;SDS011;61528;49.456;11.098;2022-11-20T13:09:13;12.03;;;7.93;;
18661;SDS011;61528;49.456;11.098;2022-11-20T13:11:41;8.77;;;6.50;;
18661;SDS011;61528;49.456;11.098;2022-11-20T13:14:23;9.47;;;6.77;;
18661;SDS011;61528;49.456;11.098;2022-11-20T13:19:32;10.77;;;7.17;;
18661;SDS011;61528;49.456;11.098;2022-11-20T13:21:59;10.77;;;7.40;;
18661;SDS011;61528;49.456;11.098;2022-11-20T13:24:26;11.67;;;7.47;;
18661;SDS011;61528;49.456;11.098;2022-11-20T13:29:27;12.53;;;7.93;;
18661;SDS011;61528;49.456;11.098;2022-11-20T13:32:01;10.87;;;7.27;;
18661;SDS011;61528;49.456;11.098;2022-11-20T13:34:28;11.73;;;7.90;;
18661;SDS011;61528;49.456;11.098;2022-11-20T13:36:56;10.43;;;7.10;;
18661;SDS011;61528;49.456;11.098;2022-11-20T13:39:23;10.87;;;7.33;;
18661;SDS011;61528;49.456;11.098;2022-11-20T13:41:55;11.90;;;8.33;;
18661;SDS011;61528;49.456;11.098;2022-11-20T13:46:51;12.43;;;7.80;;
18661;SDS011;61528;49.456;11.098;2022-11-20T13:51:50;13.83;;;9.23;;
18661;SDS011;61528;49.456;11.098;2022-11-20T13:54:21;13.00;;;9.00;;
18661;SDS011;61528;49.456;11.098;2022-11-20T13:59:33;11.87;;;8.70;;
18661;SDS011;61528;49.456;11.098;2022-11-20T14:02:02;12.70;;;8.77;;
18661;SDS011;61528;49.456;11.098;2022-11-20T14:04:35;12.27;;;8.80;;
18661;SDS011;61528;49.456;11.098;2022-11-20T14:07:04;13.07;;;8.70;;
18661;SDS011;61528;49.456;11.098;2022-11-20T14:09:32;14.07;;;8.90;;
18661;SDS011;61528;49.456;11.098;2022-11-20T14:11:59;12.97;;;8.67;;
18661;SDS011;61528;49.456;11.098;2022-11-20T14:14:25;12.30;;;8.90;;
18661;SDS011;61528;49.456;11.098;2022-11-20T14:16:53;12.03;;;8.30;;
18661;SDS011;61528;49.456;11.098;2022-11-20T14:21:46;13.10;;;9.37;;
18661;SDS011;61528;49.456;11.098;2022-11-20T14:24:13;15.60;;;10.00;;
18661;SDS011;61528;49.456;11.098;2022-11-20T14:26:42;14.53;;;9.90;;
18661;SDS011;61528;49.456;11.098;2022-11-20T14:29:15;15.13;;;10.60;;
18661;SDS011;61528;49.456;11.098;2022-11-20T14:31:42;12.87;;;9.13;;
18661;SDS011;61528;49.456;11.098;2022-11-20T14:34:14;12.10;;;8.47;;
18661;SDS011;61528;49.456;11.098;2022-11-20T14:36:41;13.80;;;9.50;;
18661;SDS011;61528;49.456;11.098;2022-11-20T14:39:10;14.60;;;9.00;;
18661;SDS011;61528;49.456;11.098;2022-11-20T14:41:36;14.17;;;9.27;;
18661;SDS011;61528;49.456;11.098;2022-11-20T14:44:03;15.63;;;9.80;;
18661;SDS011;61528;49.456;11.098;2022-11-20T14:46:30;14.00;;;9.57;;
18661;SDS011;61528;49.456;11.098;2022-11-20T14:48:57;13.17;;;8.90;;
18661;SDS011;61528;49.456;11.098;2022-11-20T14:51:30;11.77;;;8.97;;
18661;SDS011;61528;49.456;11.098;2022-11-20T14:54:07;15.37;;;9.40;;
18661;SDS011;61528;49.456;11.098;2022-11-20T14:56:33;14.80;;;9.20;;
18661;SDS011;61528;49.456;11.098;2022-11-20T14:59:00;13.10;;;9.23;;
18661;SDS011;61528;49.456;11.098;2022-11-20T15:01:27;13.73;;;9.73;;
18661;SDS011;61528;49.456;11.098;2022-11-20T15:04:01;13.37;;;9.77;;
18661;SDS011;61528;49.456;11.098;2022-11-20T15:06:28;13.67;;;8.83;;
18661;SDS011;61528;49.456;11.098;2022-11-20T15:08:55;11.67;;;8.37;;
18661;SDS011;61528;49.456;11.098;2022-11-20T15:11:27;14.43;;;9.77;;
18661;SDS011;61528;49.456;11.098;2022-11-20T15:13:54;13.27;;;9.70;;
18661;SDS011;61528;49.456;11.098;2022-11-20T15:16:21;13.30;;;8.90;;
18661;SDS011;61528;49.456;11.098;2022-11-20T15:18:49;11.07;;;8.47;;
18661;SDS011;61528;49.456;11.098;2022-11-20T15:21:16;12.07;;;8.70;;
18661;SDS011;61528;49.456;11.098;2022-11-20T15:23:42;11.63;;;8.50;;
18661;SDS011;61528;49.456;11.098;2022-11-20T15:26:09;12.20;;;8.80;;
18661;SDS011;61528;49.456;11.098;2022-11-20T15:28:42;12.83;;;8.30;;
18661;SDS011;61528;49.456;11.098;2022-11-20T15:31:12;11.20;;;8.33;;
18661;SDS011;61528;49.456;11.098;2022-11-20T15:33:39;11.57;;;8.53;;
18661;SDS011;61528;49.456;11.098;2022-11-20T15:36:05;13.53;;;8.80;;
18661;SDS011;61528;49.456;11.098;2022-11-20T15:38:31;10.87;;;8.20;;
18661;SDS011;61528;49.456;11.098;2022-11-20T15:40:58;11.73;;;8.17;;
18661;SDS011;61528;49.456;11.098;2022-11-20T15:43:24;13.97;;;8.43;;
18661;SDS011;61528;49.456;11.098;2022-11-20T15:45:53;13.57;;;9.07;;
18661;SDS011;61528;49.456;11.098;2022-11-20T15:50:51;13.50;;;9.27;;
18661;SDS011;61528;49.456;11.098;2022-11-20T15:53:18;13.37;;;9.00;;
18661;SDS011;61528;49.456;11.098;2022-11-20T15:55:45;12.47;;;8.60;;
18661;SDS011;61528;49.456;11.098;2022-11-20T15:58:11;15.77;;;10.23;;
18661;SDS011;61528;49.456;11.098;2022-11-20T16:00:37;14.33;;;9.70;;
18661;SDS011;61528;49.456;11.098;2022-11-20T16:03:04;12.53;;;8.50;;
18661;SDS011;61528;49.456;11.098;2022-11-20T16:05:30;12.13;;;8.90;;
18661;SDS011;61528;49.456;11.098;2022-11-20T16:07:56;14.50;;;9.77;;